createdAt,value
2022-09-17T00:01:16.808Z,0.60
2022-09-17T00:03:45.370Z,0.60
2022-09-17T00:06:13.860Z,0.57
2022-09-17T00:08:42.602Z,0.68
2022-09-17T00:11:14.759Z,0.65
2022-09-17T00:13:43.632Z,0.55
2022-09-17T00:16:12.299Z,0.50
2022-09-17T00:18:41.969Z,0.70
2022-09-17T00:21:17.760Z,0.60
2022-09-17T00:23:45.590Z,0.60
2022-09-17T00:26:14.987Z,0.40
2022-09-17T00:28:45.314Z,0.70
2022-09-17T00:31:13.297Z,0.85
2022-09-17T00:33:41.063Z,0.98
2022-09-17T00:36:09.240Z,0.65
2022-09-17T00:38:36.924Z,0.60
2022-09-17T00:41:05.811Z,0.40
2022-09-17T00:43:43.693Z,0.75
2022-09-17T00:46:24.038Z,0.70
2022-09-17T00:48:52.846Z,0.80
2022-09-17T00:51:25.658Z,0.70
2022-09-17T00:53:53.556Z,0.50
2022-09-17T00:56:25.339Z,0.82
2022-09-17T00:58:56.366Z,0.70
2022-09-17T01:01:24.629Z,0.85
2022-09-17T01:03:52.516Z,0.90
2022-09-17T01:06:31.127Z,0.60
2022-09-17T01:09:11.069Z,0.40
2022-09-17T01:11:53.951Z,0.70
2022-09-17T01:14:39.068Z,0.95
2022-09-17T01:17:15.940Z,0.50
2022-09-17T01:20:22.433Z,0.55
2022-09-17T01:23:04.303Z,0.57
2022-09-17T01:25:47.292Z,0.70
2022-09-17T01:28:32.700Z,0.70
2022-09-17T01:31:23.861Z,1.00
2022-09-17T01:33:58.947Z,0.65
2022-09-17T01:36:39.765Z,0.82
2022-09-17T01:39:17.212Z,1.27
2022-09-17T01:41:51.933Z,0.95
2022-09-17T01:44:27.072Z,0.98
2022-09-17T01:47:04.016Z,0.90
2022-09-17T01:49:32.915Z,1.00
2022-09-17T01:52:02.901Z,0.77
2022-09-17T01:54:37.138Z,0.75
2022-09-17T01:57:14.811Z,0.93
2022-09-17T01:59:47.660Z,1.05
2022-09-17T02:02:22.360Z,0.80
2022-09-17T02:04:56.404Z,0.68
2022-09-17T02:07:25.875Z,0.85
2022-09-17T02:10:00.639Z,1.20
2022-09-17T02:12:32.782Z,0.77
2022-09-17T02:15:03.223Z,0.80
2022-09-17T02:17:38.147Z,1.13
2022-09-17T02:20:07.546Z,0.70
2022-09-17T02:22:42.044Z,0.90
2022-09-17T02:25:15.749Z,0.80
2022-09-17T02:27:51.896Z,0.88
2022-09-17T02:30:20.004Z,0.90
2022-09-17T02:32:49.655Z,1.90
2022-09-17T02:35:17.708Z,0.82
2022-09-17T02:37:46.178Z,1.35
2022-09-17T02:40:17.255Z,0.90
2022-09-17T02:43:00.482Z,0.95
2022-09-17T02:45:39.871Z,0.93
2022-09-17T02:48:25.333Z,1.10
2022-09-17T02:51:12.657Z,0.85
2022-09-17T02:53:46.655Z,0.88
2022-09-17T02:56:21.326Z,1.10
2022-09-17T02:58:53.821Z,0.90
2022-09-17T03:01:30.277Z,1.10
2022-09-17T03:04:02.932Z,1.05
2022-09-17T03:06:30.732Z,0.95
2022-09-17T03:08:58.405Z,1.50
2022-09-17T03:11:26.337Z,1.20
2022-09-17T03:13:54.148Z,1.10
2022-09-17T03:16:21.868Z,1.10
2022-09-17T03:18:49.559Z,1.17
2022-09-17T03:21:18.589Z,1.30
2022-09-17T03:23:47.535Z,1.30
2022-09-17T03:26:15.215Z,1.38
2022-09-17T03:28:42.889Z,1.10
2022-09-17T03:31:10.634Z,1.30
2022-09-17T03:33:38.391Z,1.20
2022-09-17T03:36:06.356Z,1.25
2022-09-17T03:38:35.404Z,1.15
2022-09-17T03:41:04.904Z,1.38
2022-09-17T03:43:32.664Z,1.30
2022-09-17T03:46:00.615Z,1.40
2022-09-17T03:48:29.460Z,1.13
2022-09-17T03:50:57.137Z,1.20
2022-09-17T03:53:24.931Z,1.48
2022-09-17T03:55:53.947Z,0.85
2022-09-17T03:58:21.689Z,1.50
2022-09-17T04:00:53.013Z,0.93
2022-09-17T04:03:21.305Z,0.82
2022-09-17T04:05:50.087Z,0.90
2022-09-17T04:08:17.972Z,1.05
2022-09-17T04:10:46.053Z,1.13
2022-09-17T04:13:16.640Z,0.82
2022-09-17T04:15:45.376Z,1.00
2022-09-17T04:18:14.004Z,1.13
2022-09-17T04:20:41.992Z,1.30
2022-09-17T04:23:12.462Z,0.90
2022-09-17T04:25:40.174Z,1.10
2022-09-17T04:28:07.960Z,0.80
2022-09-17T04:30:37.278Z,1.10
2022-09-17T04:33:05.553Z,1.45
2022-09-17T04:35:33.229Z,1.10
2022-09-17T04:38:01.066Z,0.93
2022-09-17T04:40:28.889Z,0.90
2022-09-17T04:42:59.288Z,0.93
2022-09-17T04:45:27.382Z,1.58
2022-09-17T04:47:57.420Z,0.85
2022-09-17T04:50:25.171Z,1.63
2022-09-17T04:52:52.881Z,1.08
2022-09-17T04:55:20.744Z,1.10
2022-09-17T04:57:49.856Z,0.80
2022-09-17T05:00:18.566Z,0.90
2022-09-17T05:02:48.451Z,1.50
2022-09-17T05:05:18.500Z,1.40
2022-09-17T05:07:46.564Z,1.10
2022-09-17T05:10:16.426Z,1.10
2022-09-17T05:12:49.194Z,1.20
2022-09-17T05:15:17.319Z,1.00
2022-09-17T05:17:45.036Z,1.17
2022-09-17T05:20:13.336Z,2.38
2022-09-17T05:22:46.820Z,2.25
2022-09-17T05:25:16.215Z,2.45
2022-09-17T05:27:44.533Z,2.10
2022-09-17T05:30:13.220Z,2.25
2022-09-17T05:32:41.573Z,1.98
2022-09-17T05:35:10.619Z,1.60
2022-09-17T05:37:38.434Z,1.50
2022-09-17T05:40:10.219Z,1.38
2022-09-17T05:42:38.730Z,1.30
2022-09-17T05:45:07.326Z,1.50
2022-09-17T05:47:36.113Z,1.65
2022-09-17T05:50:03.944Z,1.25
2022-09-17T05:52:31.679Z,1.65
2022-09-17T05:54:59.428Z,1.60
2022-09-17T05:57:30.711Z,1.90
2022-09-17T05:59:58.469Z,2.97
2022-09-17T06:02:26.184Z,2.60
2022-09-17T06:04:53.849Z,1.55
2022-09-17T06:07:21.559Z,1.85
2022-09-17T06:09:49.265Z,1.27
2022-09-17T06:12:16.979Z,1.33
2022-09-17T06:14:46.151Z,1.80
2022-09-17T06:17:13.853Z,1.60
2022-09-17T06:19:41.654Z,1.80
2022-09-17T06:22:09.332Z,2.00
2022-09-17T06:24:37.163Z,1.90
2022-09-17T06:27:05.061Z,1.73
2022-09-17T06:29:32.745Z,1.88
2022-09-17T06:32:02.632Z,2.08
2022-09-17T06:34:30.419Z,1.98
2022-09-17T06:36:58.117Z,1.90
2022-09-17T06:39:25.809Z,1.70
2022-09-17T06:41:53.627Z,1.95
2022-09-17T06:44:21.376Z,1.63
2022-09-17T06:46:51.100Z,4.50
2022-09-17T06:49:20.421Z,1.63
2022-09-17T06:51:48.152Z,1.50
2022-09-17T06:54:15.812Z,1.95
2022-09-17T06:56:43.711Z,2.67
2022-09-17T06:59:11.383Z,1.40
2022-09-17T07:01:39.128Z,1.55
2022-09-17T07:04:06.907Z,2.15
2022-09-17T07:06:36.012Z,2.20
2022-09-17T07:09:06.842Z,1.42
2022-09-17T07:11:36.832Z,1.42
2022-09-17T07:14:05.222Z,1.80
2022-09-17T07:16:35.829Z,1.65
2022-09-17T07:19:04.583Z,1.50
2022-09-17T07:21:32.665Z,2.38
2022-09-17T07:24:04.453Z,1.63
2022-09-17T07:26:32.245Z,1.55
2022-09-17T07:29:01.143Z,1.67
2022-09-17T07:31:28.904Z,1.98
2022-09-17T07:34:03.693Z,2.60
2022-09-17T07:36:31.426Z,1.58
2022-09-17T07:38:59.217Z,1.65
2022-09-17T07:41:28.424Z,1.83
2022-09-17T07:43:56.229Z,1.10
2022-09-17T07:46:24.158Z,1.15
2022-09-17T07:48:52.171Z,2.03
2022-09-17T07:51:21.715Z,1.75
2022-09-17T07:53:52.375Z,2.17
2022-09-17T07:56:20.381Z,1.60
2022-09-17T07:58:49.563Z,1.67
2022-09-17T08:01:18.517Z,1.90
2022-09-17T08:03:51.057Z,2.05
2022-09-17T08:06:20.732Z,1.88
2022-09-17T08:08:48.725Z,1.45
2022-09-17T08:11:38.212Z,0.95
2022-09-17T08:14:08.181Z,1.00
2022-09-17T08:16:36.009Z,1.60
2022-09-17T08:19:03.764Z,1.30
2022-09-17T08:21:31.604Z,1.42
2022-09-17T08:23:59.709Z,1.45
2022-09-17T08:26:27.848Z,1.73
2022-09-17T08:28:56.698Z,1.65
2022-09-17T08:31:28.232Z,1.08
2022-09-17T08:33:55.983Z,1.95
2022-09-17T08:36:25.993Z,2.60
2022-09-17T08:38:54.806Z,3.20
2022-09-17T08:41:29.223Z,5.70
2022-09-17T08:44:10.203Z,2.60
2022-09-17T08:46:44.118Z,2.42
2022-09-17T08:49:21.755Z,1.85
2022-09-17T08:52:02.239Z,1.70
2022-09-17T08:54:37.448Z,1.70
2022-09-17T08:57:17.200Z,1.65
2022-09-17T08:59:50.600Z,1.45
2022-09-17T09:02:35.025Z,1.67
2022-09-17T09:05:09.611Z,1.42
2022-09-17T09:07:42.141Z,1.60
2022-09-17T09:10:16.963Z,1.85
2022-09-17T09:12:46.528Z,2.00
2022-09-17T09:15:34.945Z,1.30
2022-09-17T09:18:13.945Z,1.70
2022-09-17T09:20:48.385Z,1.00
2022-09-17T09:23:20.763Z,1.45
2022-09-17T09:26:07.024Z,1.33
2022-09-17T09:31:28.629Z,2.00
2022-09-17T09:33:59.377Z,1.80
2022-09-17T09:36:31.018Z,1.30
2022-09-17T09:39:02.769Z,1.80
2022-09-17T09:41:36.761Z,1.58
2022-09-17T09:44:06.825Z,1.40
2022-09-17T09:46:48.952Z,1.10
2022-09-17T09:49:27.894Z,1.40
2022-09-17T09:52:12.545Z,1.00
2022-09-17T09:54:53.815Z,1.02
2022-09-17T09:57:35.904Z,1.35
2022-09-17T10:00:28.931Z,1.30
2022-09-17T10:03:01.556Z,1.10
2022-09-17T10:05:31.706Z,1.00
2022-09-17T10:08:00.212Z,1.52
2022-09-17T10:10:27.947Z,1.05
2022-09-17T10:13:07.581Z,1.08
2022-09-17T10:15:35.383Z,1.40
2022-09-17T10:18:19.155Z,0.95
2022-09-17T10:20:59.950Z,1.67
2022-09-17T10:23:29.836Z,1.02
2022-09-17T10:25:57.703Z,1.30
2022-09-17T10:28:40.376Z,1.13
2022-09-17T10:31:10.626Z,1.02
2022-09-17T10:33:41.896Z,1.30
2022-09-17T10:36:14.658Z,1.17
2022-09-17T10:38:44.283Z,1.58
2022-09-17T10:41:22.681Z,1.40
2022-09-17T10:43:50.652Z,1.02
2022-09-17T10:46:26.658Z,0.82
2022-09-17T10:49:06.245Z,1.20
2022-09-17T10:51:35.723Z,1.33
2022-09-17T10:54:20.285Z,1.50
2022-09-17T10:56:52.241Z,0.85
2022-09-17T10:59:51.092Z,1.30
2022-09-17T11:02:47.194Z,0.70
2022-09-17T11:05:36.975Z,1.35
2022-09-17T11:08:13.727Z,1.15
2022-09-17T11:10:49.599Z,0.80
2022-09-17T11:13:25.645Z,0.98
2022-09-17T11:16:09.335Z,1.33
2022-09-17T11:18:41.081Z,0.93
2022-09-17T11:21:29.452Z,0.73
2022-09-17T11:24:45.666Z,0.60
2022-09-17T11:27:26.027Z,1.27
2022-09-17T11:30:06.068Z,1.10
2022-09-17T11:32:57.708Z,0.93
2022-09-17T11:35:28.811Z,1.20
2022-09-17T11:38:02.867Z,0.63
2022-09-17T11:40:40.079Z,0.85
2022-09-17T11:43:19.583Z,1.08
2022-09-17T11:46:01.561Z,0.98
2022-09-17T11:48:36.838Z,0.57
2022-09-17T11:51:13.618Z,0.77
2022-09-17T11:53:47.591Z,0.57
2022-09-17T11:56:22.664Z,1.80
2022-09-17T11:58:54.980Z,0.88
2022-09-17T12:01:29.285Z,1.13
2022-09-17T12:04:00.959Z,0.70
2022-09-17T12:06:37.984Z,0.70
2022-09-17T12:09:13.270Z,0.88
2022-09-17T12:11:48.202Z,1.00
2022-09-17T12:14:21.842Z,0.68
2022-09-17T12:16:52.987Z,0.65
2022-09-17T12:19:26.586Z,0.80
2022-09-17T12:21:57.135Z,0.70
2022-09-17T12:24:26.955Z,0.50
2022-09-17T12:27:23.114Z,1.00
2022-09-17T12:30:19.300Z,1.02
2022-09-17T12:33:08.496Z,0.68
2022-09-17T12:36:04.579Z,0.80
2022-09-17T12:39:06.441Z,1.23
2022-09-17T12:41:44.159Z,0.90
2022-09-17T12:44:35.393Z,0.80
2022-09-17T12:47:17.674Z,0.68
2022-09-17T12:50:09.033Z,0.75
2022-09-17T12:52:53.899Z,0.90
2022-09-17T12:55:30.920Z,0.75
2022-09-17T12:58:06.762Z,0.75
2022-09-17T13:03:13.757Z,0.90
2022-09-17T13:06:03.279Z,0.67
2022-09-17T13:08:59.872Z,0.73
2022-09-17T13:11:52.727Z,0.85
2022-09-17T13:14:28.615Z,0.68
2022-09-17T13:19:36.587Z,0.90
2022-09-17T13:22:10.111Z,0.80
2022-09-17T13:24:38.207Z,0.52
2022-09-17T13:27:07.408Z,0.77
2022-09-17T13:30:02.669Z,0.82
2022-09-17T13:32:49.367Z,0.60
2022-09-17T13:35:51.478Z,0.43
2022-09-17T13:38:23.792Z,0.57
2022-09-17T13:40:52.912Z,0.60
2022-09-17T13:43:26.719Z,0.68
2022-09-17T13:46:17.356Z,0.40
2022-09-17T13:48:50.886Z,0.63
2022-09-17T13:51:47.492Z,0.50
2022-09-17T13:54:17.320Z,0.63
2022-09-17T13:56:47.659Z,0.50
2022-09-17T13:59:19.026Z,0.68
2022-09-17T14:02:30.663Z,0.57
2022-09-17T14:05:39.151Z,0.55
2022-09-17T14:08:29.080Z,0.70
2022-09-17T14:10:59.379Z,1.35
2022-09-17T14:13:44.657Z,0.70
2022-09-17T14:16:35.719Z,0.68
2022-09-17T14:19:06.841Z,0.50
2022-09-17T14:21:36.347Z,0.65
2022-09-17T14:24:14.761Z,0.77
2022-09-17T14:27:07.221Z,0.93
2022-09-17T14:29:50.396Z,0.50
2022-09-17T14:32:20.934Z,0.55
2022-09-17T14:34:49.180Z,0.50
2022-09-17T14:37:21.871Z,0.52
2022-09-17T14:39:50.900Z,0.43
2022-09-17T14:42:21.927Z,0.32
2022-09-17T14:44:57.937Z,0.40
2022-09-17T14:47:26.819Z,0.70
2022-09-17T14:49:55.222Z,0.35
2022-09-17T14:52:30.328Z,0.80
2022-09-17T14:55:11.607Z,1.02
2022-09-17T14:57:39.957Z,0.50
2022-09-17T15:00:16.840Z,0.70
2022-09-17T15:02:45.462Z,0.63
2022-09-17T15:05:22.833Z,0.40
2022-09-17T15:07:52.093Z,0.30
2022-09-17T15:10:21.833Z,0.45
2022-09-17T15:12:51.536Z,0.43
2022-09-17T15:15:22.015Z,0.60
2022-09-17T15:17:51.305Z,0.70
2022-09-17T15:20:22.567Z,0.30
2022-09-17T15:22:57.491Z,0.90
2022-09-17T15:25:30.499Z,1.00
2022-09-17T15:28:04.710Z,1.20
2022-09-17T15:30:33.136Z,1.20
2022-09-17T15:33:01.272Z,0.68
2022-09-17T15:35:31.049Z,1.15
2022-09-17T15:38:22.334Z,1.05
2022-09-17T15:40:51.544Z,0.63
2022-09-17T15:43:26.289Z,0.60
2022-09-17T15:45:54.492Z,0.65
2022-09-17T15:48:34.848Z,0.60
2022-09-17T15:51:03.919Z,0.40
2022-09-17T15:53:34.075Z,0.55
2022-09-17T15:56:08.401Z,0.60
2022-09-17T15:58:52.036Z,0.75
2022-09-17T16:01:55.592Z,0.90
2022-09-17T16:04:32.635Z,0.80
2022-09-17T16:07:03.558Z,0.90
2022-09-17T16:09:45.793Z,0.80
2022-09-17T16:12:18.273Z,0.75
2022-09-17T16:14:48.379Z,0.57
2022-09-17T16:17:28.911Z,0.60
2022-09-17T16:19:57.018Z,0.50
2022-09-17T16:22:26.207Z,0.73
2022-09-17T16:24:55.229Z,0.50
2022-09-17T16:27:27.215Z,0.35
2022-09-17T16:30:02.598Z,0.40
2022-09-17T16:32:30.322Z,0.52
2022-09-17T16:34:58.289Z,0.25
2022-09-17T16:37:26.010Z,0.57
2022-09-17T16:39:55.071Z,0.40
2022-09-17T16:42:22.843Z,0.60
2022-09-17T16:44:50.543Z,0.50
2022-09-17T16:47:18.405Z,0.60
2022-09-17T16:49:46.138Z,0.70
2022-09-17T16:52:13.834Z,0.85
2022-09-17T16:54:41.507Z,0.75
2022-09-17T16:57:10.541Z,0.85
2022-09-17T16:59:38.344Z,1.02
2022-09-17T17:02:07.016Z,1.38
2022-09-17T17:04:34.729Z,1.65
2022-09-17T17:07:02.421Z,1.10
2022-09-17T17:09:30.117Z,0.75
2022-09-17T17:11:57.822Z,0.63
2022-09-17T17:14:26.888Z,0.65
2022-09-17T17:16:54.655Z,0.95
2022-09-17T17:19:23.207Z,1.02
2022-09-17T17:21:51.443Z,0.73
2022-09-17T17:24:19.227Z,1.35
2022-09-17T17:26:48.243Z,0.93
2022-09-17T17:29:16.742Z,0.70
2022-09-17T17:31:45.926Z,0.60
2022-09-17T17:34:13.695Z,0.80
2022-09-17T17:36:41.828Z,0.90
2022-09-17T17:39:10.288Z,1.02
2022-09-17T17:41:38.534Z,0.65
2022-09-17T17:44:07.230Z,0.88
2022-09-17T17:46:35.041Z,0.50
2022-09-17T17:49:04.452Z,1.13
2022-09-17T17:51:32.139Z,2.13
2022-09-17T17:53:59.893Z,1.25
2022-09-17T17:56:27.717Z,1.00
2022-09-17T17:58:57.589Z,0.98
2022-09-17T18:01:27.413Z,1.83
2022-09-17T18:03:58.003Z,1.70
2022-09-17T18:06:27.995Z,1.30
2022-09-17T18:08:56.069Z,1.52
2022-09-17T18:11:25.117Z,1.80
2022-09-17T18:13:53.685Z,1.20
2022-09-17T18:16:22.713Z,1.20
2022-09-17T18:18:51.238Z,1.10
2022-09-17T18:21:20.553Z,1.15
2022-09-17T18:23:50.557Z,1.30
2022-09-17T18:26:19.995Z,1.10
2022-09-17T18:28:47.978Z,1.42
2022-09-17T18:31:22.130Z,1.30
2022-09-17T18:33:50.498Z,0.88
2022-09-17T18:36:18.384Z,1.27
2022-09-17T18:38:46.096Z,1.55
2022-09-17T18:41:15.137Z,1.48
2022-09-17T18:43:43.352Z,1.17
2022-09-17T18:46:11.137Z,1.08
2022-09-17T18:48:38.905Z,0.90
2022-09-17T18:51:08.769Z,0.98
2022-09-17T18:53:38.281Z,0.90
2022-09-17T18:56:11.078Z,0.80
2022-09-17T18:58:40.159Z,0.80
2022-09-17T19:01:08.707Z,0.95
2022-09-17T19:03:36.466Z,1.00
2022-09-17T19:06:05.852Z,1.00
2022-09-17T19:08:33.584Z,1.20
2022-09-17T19:11:01.277Z,1.58
2022-09-17T19:13:34.653Z,1.10
2022-09-17T19:16:04.811Z,0.60
2022-09-17T19:18:33.985Z,0.70
2022-09-17T19:21:02.899Z,0.40
2022-09-17T19:23:31.830Z,0.57
2022-09-17T19:26:06.553Z,0.80
2022-09-17T19:28:34.449Z,0.80
2022-09-17T19:31:05.811Z,0.60
2022-09-17T19:33:33.942Z,1.40
2022-09-17T19:36:02.508Z,1.00
2022-09-17T19:38:31.733Z,1.30
2022-09-17T19:41:00.728Z,1.00
2022-09-17T19:43:28.543Z,0.95
2022-09-17T19:46:02.188Z,1.05
2022-09-17T19:48:31.969Z,0.90
2022-09-17T19:51:00.207Z,0.80
2022-09-17T19:53:28.075Z,1.30
2022-09-17T19:55:55.870Z,2.15
2022-09-17T19:58:23.821Z,1.10
2022-09-17T20:00:55.839Z,1.48
2022-09-17T20:03:23.563Z,2.38
2022-09-17T20:05:59.425Z,1.70
2022-09-17T20:08:27.373Z,1.10
2022-09-17T20:10:55.397Z,0.73
2022-09-17T20:13:25.191Z,0.90
2022-09-17T20:15:53.065Z,1.00
2022-09-17T20:18:23.516Z,1.83
2022-09-17T20:20:52.953Z,2.63
2022-09-17T20:23:20.821Z,2.53
2022-09-17T20:25:52.829Z,2.67
2022-09-17T20:28:20.652Z,1.30
2022-09-17T20:30:48.530Z,0.70
2022-09-17T20:33:18.929Z,0.90
2022-09-17T20:35:48.856Z,1.10
2022-09-17T20:39:09.398Z,0.73
2022-09-17T20:41:09.131Z,0.73
2022-09-17T20:43:38.766Z,0.90
2022-09-17T20:46:07.528Z,0.70
2022-09-17T20:48:36.182Z,0.70
2022-09-17T20:51:05.643Z,1.65
2022-09-17T20:53:37.173Z,0.93
2022-09-17T20:56:07.073Z,0.90
2022-09-17T20:58:36.816Z,0.60
2022-09-17T21:01:09.328Z,0.65
2022-09-17T21:03:37.983Z,0.98
2022-09-17T21:06:06.508Z,1.50
2022-09-17T21:08:35.755Z,0.80
2022-09-17T21:11:05.023Z,0.70
2022-09-17T21:13:32.939Z,0.70
2022-09-17T21:16:02.303Z,1.23
2022-09-17T21:18:30.205Z,0.70
2022-09-17T21:20:58.155Z,0.95
2022-09-17T21:23:26.853Z,1.02
2022-09-17T21:26:03.171Z,0.70
2022-09-17T21:28:31.433Z,1.67
2022-09-17T21:31:04.621Z,0.85
2022-09-17T21:33:32.495Z,1.40
2022-09-17T21:36:04.956Z,1.30
2022-09-17T21:38:33.126Z,1.10
2022-09-17T21:41:03.926Z,1.02
2022-09-17T21:43:32.948Z,0.80
2022-09-17T21:46:02.599Z,1.05
2022-09-17T21:48:31.395Z,1.42
2022-09-17T21:51:03.910Z,1.08
2022-09-17T21:53:32.519Z,1.00
2022-09-17T21:56:06.564Z,0.85
2022-09-17T21:58:34.655Z,0.82
2022-09-17T22:01:07.166Z,0.85
2022-09-17T22:03:35.357Z,0.75
2022-09-17T22:06:04.609Z,0.60
2022-09-17T22:08:33.418Z,0.75
2022-09-17T22:11:05.141Z,0.80
2022-09-17T22:13:36.855Z,0.93
2022-09-17T22:16:06.853Z,0.95
2022-09-17T22:18:36.307Z,0.98
2022-09-17T22:21:13.721Z,0.70
2022-09-17T22:23:41.535Z,1.00
2022-09-17T22:26:09.793Z,1.02
2022-09-17T22:28:38.911Z,0.80
2022-09-17T22:31:08.864Z,0.80
2022-09-17T22:33:38.077Z,1.08
2022-09-17T22:36:07.588Z,1.10
2022-09-17T22:38:35.838Z,1.23
2022-09-17T22:41:05.570Z,0.80
2022-09-17T22:43:33.808Z,1.10
2022-09-17T22:46:11.293Z,0.90
2022-09-17T22:48:39.117Z,1.40
2022-09-17T22:51:07.103Z,0.90
2022-09-17T22:53:34.853Z,0.60
2022-09-17T22:56:03.350Z,0.77
2022-09-17T22:58:31.441Z,0.73
2022-09-17T23:00:59.572Z,1.33
2022-09-17T23:03:28.765Z,0.90
2022-09-17T23:06:00.202Z,0.68
2022-09-17T23:08:28.763Z,1.13
2022-09-17T23:10:56.958Z,0.95
2022-09-17T23:13:24.705Z,1.60
2022-09-17T23:15:52.530Z,1.10
2022-09-17T23:18:21.388Z,1.20
2022-09-17T23:20:59.312Z,1.30
2022-09-17T23:23:27.419Z,0.98
2022-09-17T23:25:55.916Z,1.70
2022-09-17T23:28:23.832Z,0.70
2022-09-17T23:30:51.562Z,0.90
2022-09-17T23:33:19.263Z,0.63
2022-09-17T23:35:46.936Z,0.90
2022-09-17T23:38:15.987Z,0.73
2022-09-17T23:40:43.703Z,1.20
2022-09-17T23:43:11.385Z,1.10
2022-09-17T23:45:39.062Z,1.17
2022-09-17T23:48:06.772Z,0.95
2022-09-17T23:50:34.437Z,1.10
2022-09-17T23:53:02.161Z,0.98
2022-09-17T23:55:31.227Z,1.77
2022-09-17T23:57:58.924Z,1.17
